Pawleys Island, SC (29585)

6:41 PM EDT on August 27, 2015 (GMT -0400)
Litchfield Beach | | Change Station
CLOSE
Current Station
Personal Weather Station
Location: Pawleys Island, SC
Elevation: 10 ft
Nearby Weather Stations

Elev 10 ft 33.47 °N, 79.10 °W | Updated 2 seconds ago

Overcast
Overcast
80.4 °F
Feels Like 86 °F
N
0.0
Wind Variable Wind from South
Gusts 0.0 mph

Today
High -- | Low -- °F
--% Chance of Precip.
Yesterday
High -- | Low -- °F
Precip. -- in
6:47 AM 7:48 PM
Waxing Gibbous, 95% visible
Pressure 30.02 in
Visibility 10.0 miles
Clouds Scattered Clouds 2000 ft
Mostly Cloudy 7000 ft
Overcast 11000 ft
Heat Index 86 °F
Dew Point 76 °F
Humidity 87%
Rainfall 2.36 in
Snow Depth Not available.
UV 0 out of 12
Pollen 7.20 out of 12
Air Quality Not available.
Flu Activity Not available.
METAR KGGE 272235Z AUTO 00000KT 10SM -VCTSRA SCT020 BKN070 OVC110 23/23 A3002 RMK AO2 LTG DSNT S P0001
Pressure 30.02 in
Visibility 10.0 miles
Clouds Scattered Clouds 2000 ft
Mostly Cloudy 7000 ft
Overcast 11000 ft
Heat Index 86 °F
Dew Point 76 °F
Humidity 87%
Rainfall 2.36 in
Snow Depth Not available.
UV 0 out of 12
Pollen 7.20 out of 12
Air Quality Not available.
Flu Activity Not available.
METAR KGGE 272235Z AUTO 00000KT 10SM -VCTSRA SCT020 BKN070 OVC110 23/23 A3002 RMK AO2 LTG DSNT S P0001
Tropical Storm Erika remains unorganized as it travels through the northeast Caribbean Sea. The storm has already dumped 5-10 inches of rain on the Lesser Antilles, with more rain anticipated for Puerto Rico and Hispaniola. This will be much-needed rain for those islands. Erika is not forecast to reach hurricane strength until Monday when it curves northward along the east coast of Florida. Follow the live blog

10-Day Weather Forecast

×

Almanac

Astronomy

Aug. 27, 2015 Rise Set
Actual Time
Civil Twilight
Nautical Twilight
Astronomical Twilight
Moon
Length of Visible Light
Length of Day
Tomorrow will be .
, % of the Moon is Illuminated

Today's Extremes

State Highs State Lows

Community

WunderPhotos

Upload Photos

1,850,252 photos uploaded!

WunderBlogs® & News

Nearby

Air Quality

  Air Quality AQ Index Pollutant
Not available.

Snow Depth

Station Depth Elevation

Earthquake Activity

City Distance Mag. Time & Date
Minimum magnitude displayed is 2.5.

Coastal Water Temperatures

Place Temperature

Stations

Nearby Weather Stations

Station Location Temp. Windchill Dew Point Humidity Wind Precip. Elev Updated Type